sensor_id;sensor_type;location;lat;lon;timestamp;pressure;altitude;pressure_sealevel;temperature;humidity
76519;BME280;67029;51.054;13.798;2023-02-21T00:01:34;100219.41;;;13.37;54.73
76519;BME280;67029;51.054;13.798;2023-02-21T00:04:04;100215.25;;;13.39;54.69
76519;BME280;67029;51.054;13.798;2023-02-21T00:06:34;100230.94;;;13.43;54.66
76519;BME280;67029;51.054;13.798;2023-02-21T00:09:04;100220.80;;;13.44;54.55
76519;BME280;67029;51.054;13.798;2023-02-21T00:11:34;100234.83;;;13.40;54.67
76519;BME280;67029;51.054;13.798;2023-02-21T00:14:04;100232.12;;;13.36;54.72
76519;BME280;67029;51.054;13.798;2023-02-21T00:16:34;100231.48;;;13.35;54.70
76519;BME280;67029;51.054;13.798;2023-02-21T00:19:04;100227.71;;;13.36;54.72
76519;BME280;67029;51.054;13.798;2023-02-21T00:21:34;100230.62;;;13.33;54.76
76519;BME280;67029;51.054;13.798;2023-02-21T00:24:05;100232.10;;;13.34;54.78
76519;BME280;67029;51.054;13.798;2023-02-21T00:26:35;100238.11;;;13.35;54.80
76519;BME280;67029;51.054;13.798;2023-02-21T00:29:06;100240.20;;;13.36;54.84
76519;BME280;67029;51.054;13.798;2023-02-21T00:31:36;100237.81;;;13.34;54.94
76519;BME280;67029;51.054;13.798;2023-02-21T00:34:06;100234.89;;;13.39;55.00
76519;BME280;67029;51.054;13.798;2023-02-21T00:36:36;100240.38;;;13.28;55.19
76519;BME280;67029;51.054;13.798;2023-02-21T00:39:06;100238.55;;;13.34;55.31
76519;BME280;67029;51.054;13.798;2023-02-21T00:41:36;100231.02;;;13.14;55.90
76519;BME280;67029;51.054;13.798;2023-02-21T00:44:06;100236.83;;;13.12;55.84
76519;BME280;67029;51.054;13.798;2023-02-21T00:46:36;100232.61;;;13.14;55.74
76519;BME280;67029;51.054;13.798;2023-02-21T00:49:06;100216.64;;;13.14;55.67
76519;BME280;67029;51.054;13.798;2023-02-21T00:51:36;100214.94;;;13.11;55.77
76519;BME280;67029;51.054;13.798;2023-02-21T00:54:06;100221.41;;;13.20;55.48
76519;BME280;67029;51.054;13.798;2023-02-21T00:56:36;100217.27;;;13.19;55.34
76519;BME280;67029;51.054;13.798;2023-02-21T00:59:06;100226.22;;;13.15;55.50
76519;BME280;67029;51.054;13.798;2023-02-21T01:01:36;100211.28;;;13.15;55.47
76519;BME280;67029;51.054;13.798;2023-02-21T01:04:06;100213.31;;;13.19;55.35
76519;BME280;67029;51.054;13.798;2023-02-21T01:06:36;100202.42;;;13.26;55.20
76519;BME280;67029;51.054;13.798;2023-02-21T01:09:06;100205.22;;;13.19;55.26
76519;BME280;67029;51.054;13.798;2023-02-21T01:11:36;100201.04;;;13.11;55.41
76519;BME280;67029;51.054;13.798;2023-02-21T01:14:07;100193.98;;;13.18;55.30
76519;BME280;67029;51.054;13.798;2023-02-21T01:16:37;100181.34;;;13.27;55.01
76519;BME280;67029;51.054;13.798;2023-02-21T01:19:07;100194.96;;;13.26;54.88
76519;BME280;67029;51.054;13.798;2023-02-21T01:21:37;100187.06;;;13.27;54.88
76519;BME280;67029;51.054;13.798;2023-02-21T01:24:11;100187.20;;;13.18;55.04
76519;BME280;67029;51.054;13.798;2023-02-21T01:26:37;100183.12;;;13.22;55.00
76519;BME280;67029;51.054;13.798;2023-02-21T01:29:07;100173.59;;;13.25;54.89
76519;BME280;67029;51.054;13.798;2023-02-21T01:31:37;100170.50;;;13.24;54.87
76519;BME280;67029;51.054;13.798;2023-02-21T01:34:07;100176.86;;;13.17;55.09
76519;BME280;67029;51.054;13.798;2023-02-21T01:36:40;100174.11;;;13.19;55.06
76519;BME280;67029;51.054;13.798;2023-02-21T01:39:08;100174.50;;;13.27;54.90
76519;BME280;67029;51.054;13.798;2023-02-21T01:41:38;100173.89;;;13.27;54.83
76519;BME280;67029;51.054;13.798;2023-02-21T01:46:38;100175.80;;;13.12;55.22
76519;BME280;67029;51.054;13.798;2023-02-21T01:49:14;100166.75;;;13.06;55.41
76519;BME280;67029;51.054;13.798;2023-02-21T01:51:41;100176.37;;;13.13;55.37
76519;BME280;67029;51.054;13.798;2023-02-21T01:54:10;100170.03;;;13.12;55.38
76519;BME280;67029;51.054;13.798;2023-02-21T01:56:40;100153.95;;;13.11;55.41
76519;BME280;67029;51.054;13.798;2023-02-21T01:59:10;100174.81;;;13.12;55.44
76519;BME280;67029;51.054;13.798;2023-02-21T02:01:50;100169.85;;;13.16;55.35
76519;BME280;67029;51.054;13.798;2023-02-21T02:04:11;100160.66;;;13.23;55.24
76519;BME280;67029;51.054;13.798;2023-02-21T02:06:41;100132.77;;;13.26;55.16
76519;BME280;67029;51.054;13.798;2023-02-21T02:09:15;100160.30;;;13.18;55.34
76519;BME280;67029;51.054;13.798;2023-02-21T02:19:37;100148.41;;;13.16;55.63
76519;BME280;67029;51.054;13.798;2023-02-21T02:24:50;100155.73;;;13.23;55.52
76519;BME280;67029;51.054;13.798;2023-02-21T02:32:03;100148.21;;;13.37;55.31
76519;BME280;67029;51.054;13.798;2023-02-21T02:34:39;100134.97;;;13.37;55.30
76519;BME280;67029;51.054;13.798;2023-02-21T02:36:54;100148.44;;;13.34;55.41
76519;BME280;67029;51.054;13.798;2023-02-21T02:39:39;100146.75;;;13.24;55.61
76519;BME280;67029;51.054;13.798;2023-02-21T02:42:16;100137.30;;;13.25;55.62
76519;BME280;67029;51.054;13.798;2023-02-21T02:44:23;100135.05;;;13.26;55.56
76519;BME280;67029;51.054;13.798;2023-02-21T02:46:50;100139.00;;;13.31;55.52
76519;BME280;67029;51.054;13.798;2023-02-21T02:49:22;100138.19;;;13.36;55.39
76519;BME280;67029;51.054;13.798;2023-02-21T02:51:51;100132.59;;;13.46;55.22
76519;BME280;67029;51.054;13.798;2023-02-21T02:54:21;100125.06;;;13.48;55.10
76519;BME280;67029;51.054;13.798;2023-02-21T02:56:51;100141.11;;;13.50;55.11
76519;BME280;67029;51.054;13.798;2023-02-21T02:59:24;100118.76;;;13.51;55.06
76519;BME280;67029;51.054;13.798;2023-02-21T03:02:04;100134.66;;;13.47;55.10
76519;BME280;67029;51.054;13.798;2023-02-21T03:05:02;100131.52;;;13.47;55.11
76519;BME280;67029;51.054;13.798;2023-02-21T03:12:02;100127.95;;;13.35;55.56
76519;BME280;67029;51.054;13.798;2023-02-21T03:14:28;100130.64;;;13.36;55.65
76519;BME280;67029;51.054;13.798;2023-02-21T03:16:58;100132.77;;;13.39;55.62
76519;BME280;67029;51.054;13.798;2023-02-21T03:19:33;100140.09;;;13.41;55.61
76519;BME280;67029;51.054;13.798;2023-02-21T03:22:04;100123.45;;;13.45;55.53
76519;BME280;67029;51.054;13.798;2023-02-21T03:24:26;100128.87;;;13.48;55.48
76519;BME280;67029;51.054;13.798;2023-02-21T03:27:00;100123.95;;;13.45;55.55
76519;BME280;67029;51.054;13.798;2023-02-21T03:29:26;100119.63;;;13.41;55.76
76519;BME280;67029;51.054;13.798;2023-02-21T03:32:26;100105.50;;;13.36;56.02
76519;BME280;67029;51.054;13.798;2023-02-21T03:34:28;100115.36;;;13.37;55.99
76519;BME280;67029;51.054;13.798;2023-02-21T03:36:58;100111.44;;;13.42;56.01
76519;BME280;67029;51.054;13.798;2023-02-21T03:39:28;100118.78;;;13.41;56.07
76519;BME280;67029;51.054;13.798;2023-02-21T03:41:58;100114.45;;;13.36;56.26
76519;BME280;67029;51.054;13.798;2023-02-21T03:44:28;100114.97;;;13.47;56.01
76519;BME280;67029;51.054;13.798;2023-02-21T03:46:58;100112.33;;;13.48;56.00
76519;BME280;67029;51.054;13.798;2023-02-21T03:49:28;100115.77;;;13.54;55.91
76519;BME280;67029;51.054;13.798;2023-02-21T03:51:58;100112.53;;;13.56;55.90
76519;BME280;67029;51.054;13.798;2023-02-21T03:54:28;100111.45;;;13.58;55.83
76519;BME280;67029;51.054;13.798;2023-02-21T03:56:58;100117.89;;;13.60;55.77
76519;BME280;67029;51.054;13.798;2023-02-21T03:59:28;100119.06;;;13.61;55.78
76519;BME280;67029;51.054;13.798;2023-02-21T04:01:58;100116.34;;;13.68;55.69
76519;BME280;67029;51.054;13.798;2023-02-21T04:04:28;100120.28;;;13.71;55.58
76519;BME280;67029;51.054;13.798;2023-02-21T04:06:59;100113.45;;;13.76;55.43
76519;BME280;67029;51.054;13.798;2023-02-21T04:09:29;100113.54;;;13.70;55.58
76519;BME280;67029;51.054;13.798;2023-02-21T04:11:59;100118.52;;;13.66;55.66
76519;BME280;67029;51.054;13.798;2023-02-21T04:14:29;100107.30;;;13.51;56.21
76519;BME280;67029;51.054;13.798;2023-02-21T04:16:59;100113.86;;;13.56;55.95
76519;BME280;67029;51.054;13.798;2023-02-21T04:19:29;100114.84;;;13.60;55.86
76519;BME280;67029;51.054;13.798;2023-02-21T04:21:59;100105.67;;;13.57;56.02
76519;BME280;67029;51.054;13.798;2023-02-21T04:24:29;100123.16;;;13.52;56.15
76519;BME280;67029;51.054;13.798;2023-02-21T04:26:59;100112.27;;;13.58;56.12
76519;BME280;67029;51.054;13.798;2023-02-21T04:29:29;100120.80;;;13.60;56.22
76519;BME280;67029;51.054;13.798;2023-02-21T04:31:59;100115.91;;;13.62;56.16
76519;BME280;67029;51.054;13.798;2023-02-21T04:34:29;100122.91;;;13.72;55.91
76519;BME280;67029;51.054;13.798;2023-02-21T04:36:59;100115.27;;;13.71;56.02
76519;BME280;67029;51.054;13.798;2023-02-21T04:39:29;100113.38;;;13.67;56.22
76519;BME280;67029;51.054;13.798;2023-02-21T04:41:59;100109.48;;;13.61;56.41
76519;BME280;67029;51.054;13.798;2023-02-21T04:44:29;100098.67;;;13.62;56.50
76519;BME280;67029;51.054;13.798;2023-02-21T04:46:59;100111.38;;;13.59;56.64
76519;BME280;67029;51.054;13.798;2023-02-21T04:49:29;100113.16;;;13.60;56.64
76519;BME280;67029;51.054;13.798;2023-02-21T04:51:59;100111.02;;;13.58;56.75
76519;BME280;67029;51.054;13.798;2023-02-21T04:54:29;100110.45;;;13.50;56.96
76519;BME280;67029;51.054;13.798;2023-02-21T04:56:59;100119.06;;;13.47;57.20
76519;BME280;67029;51.054;13.798;2023-02-21T04:59:29;100120.37;;;13.49;57.15
76519;BME280;67029;51.054;13.798;2023-02-21T05:01:59;100122.92;;;13.43;57.32
76519;BME280;67029;51.054;13.798;2023-02-21T05:04:29;100120.77;;;13.49;57.25
76519;BME280;67029;51.054;13.798;2023-02-21T05:06:59;100123.08;;;13.55;57.08
76519;BME280;67029;51.054;13.798;2023-02-21T05:09:29;100115.38;;;13.54;57.17
76519;BME280;67029;51.054;13.798;2023-02-21T05:11:59;100113.17;;;13.59;57.24
76519;BME280;67029;51.054;13.798;2023-02-21T05:14:29;100102.38;;;13.59;57.19
76519;BME280;67029;51.054;13.798;2023-02-21T05:16:59;100101.00;;;13.63;56.95
76519;BME280;67029;51.054;13.798;2023-02-21T05:19:30;100095.02;;;13.59;57.04
76519;BME280;67029;51.054;13.798;2023-02-21T05:22:01;100095.19;;;13.59;57.17
76519;BME280;67029;51.054;13.798;2023-02-21T05:24:30;100087.92;;;13.58;57.24
76519;BME280;67029;51.054;13.798;2023-02-21T05:27:01;100092.36;;;13.57;57.37
76519;BME280;67029;51.054;13.798;2023-02-21T05:29:31;100097.12;;;13.59;57.34
76519;BME280;67029;51.054;13.798;2023-02-21T05:32:01;100101.62;;;13.65;57.10
76519;BME280;67029;51.054;13.798;2023-02-21T05:34:31;100100.88;;;13.67;57.02
76519;BME280;67029;51.054;13.798;2023-02-21T05:37:01;100102.48;;;13.62;57.12
76519;BME280;67029;51.054;13.798;2023-02-21T05:39:31;100100.59;;;13.63;57.12
76519;BME280;67029;51.054;13.798;2023-02-21T05:42:01;100092.97;;;13.66;57.18
76519;BME280;67029;51.054;13.798;2023-02-21T05:44:31;100110.23;;;13.68;57.17
76519;BME280;67029;51.054;13.798;2023-02-21T05:47:01;100102.33;;;13.67;57.09
76519;BME280;67029;51.054;13.798;2023-02-21T05:49:31;100120.48;;;13.68;57.05
76519;BME280;67029;51.054;13.798;2023-02-21T05:52:01;100114.72;;;13.68;57.05
76519;BME280;67029;51.054;13.798;2023-02-21T05:54:31;100118.58;;;13.69;57.08
76519;BME280;67029;51.054;13.798;2023-02-21T05:57:02;100116.11;;;13.71;57.00
76519;BME280;67029;51.054;13.798;2023-02-21T05:59:31;100115.89;;;13.67;57.16
76519;BME280;67029;51.054;13.798;2023-02-21T06:02:02;100127.82;;;13.69;57.10
76519;BME280;67029;51.054;13.798;2023-02-21T06:04:31;100122.12;;;13.75;57.09
76519;BME280;67029;51.054;13.798;2023-02-21T06:07:01;100132.75;;;13.70;57.31
76519;BME280;67029;51.054;13.798;2023-02-21T06:09:31;100138.45;;;13.66;57.29
76519;BME280;67029;51.054;13.798;2023-02-21T06:12:02;100136.31;;;13.69;57.22
76519;BME280;67029;51.054;13.798;2023-02-21T06:14:32;100141.95;;;13.74;57.05
76519;BME280;67029;51.054;13.798;2023-02-21T06:17:02;100144.75;;;13.77;57.05
76519;BME280;67029;51.054;13.798;2023-02-21T06:19:32;100145.55;;;13.73;56.98
76519;BME280;67029;51.054;13.798;2023-02-21T06:22:02;100150.95;;;13.74;57.09
76519;BME280;67029;51.054;13.798;2023-02-21T06:24:32;100144.81;;;13.70;57.16
76519;BME280;67029;51.054;13.798;2023-02-21T06:27:02;100156.13;;;13.73;57.22
76519;BME280;67029;51.054;13.798;2023-02-21T06:29:32;100160.99;;;13.74;57.12
76519;BME280;67029;51.054;13.798;2023-02-21T06:32:02;100158.13;;;13.75;57.17
76519;BME280;67029;51.054;13.798;2023-02-21T06:34:34;100156.23;;;13.70;57.20
76519;BME280;67029;51.054;13.798;2023-02-21T06:37:03;100166.28;;;13.70;57.22
76519;BME280;67029;51.054;13.798;2023-02-21T06:39:33;100176.38;;;13.75;57.12
76519;BME280;67029;51.054;13.798;2023-02-21T06:42:03;100178.42;;;13.75;57.14
76519;BME280;67029;51.054;13.798;2023-02-21T06:44:33;100171.41;;;13.78;57.13
76519;BME280;67029;51.054;13.798;2023-02-21T06:47:03;100183.83;;;13.79;57.06
76519;BME280;67029;51.054;13.798;2023-02-21T06:49:33;100185.42;;;13.77;57.18
76519;BME280;67029;51.054;13.798;2023-02-21T06:52:04;100183.71;;;13.72;57.32
76519;BME280;67029;51.054;13.798;2023-02-21T06:54:34;100185.09;;;13.74;57.23
76519;BME280;67029;51.054;13.798;2023-02-21T06:57:04;100186.22;;;13.70;57.31
76519;BME280;67029;51.054;13.798;2023-02-21T06:59:34;100197.81;;;13.66;57.44
76519;BME280;67029;51.054;13.798;2023-02-21T07:02:04;100200.36;;;13.69;57.48
76519;BME280;67029;51.054;13.798;2023-02-21T07:04:34;100196.20;;;13.74;57.37
76519;BME280;67029;51.054;13.798;2023-02-21T07:07:04;100201.02;;;13.84;57.10
76519;BME280;67029;51.054;13.798;2023-02-21T07:09:34;100199.77;;;13.86;57.09
76519;BME280;67029;51.054;13.798;2023-02-21T07:12:05;100208.93;;;13.92;56.91
76519;BME280;67029;51.054;13.798;2023-02-21T07:14:35;100210.88;;;13.92;56.90
76519;BME280;67029;51.054;13.798;2023-02-21T07:17:05;100219.68;;;13.88;57.02
76519;BME280;67029;51.054;13.798;2023-02-21T07:19:35;100218.59;;;13.87;57.08
76519;BME280;67029;51.054;13.798;2023-02-21T07:22:05;100219.52;;;13.81;57.11
76519;BME280;67029;51.054;13.798;2023-02-21T07:24:35;100222.59;;;13.78;57.26
76519;BME280;67029;51.054;13.798;2023-02-21T07:27:05;100219.71;;;13.75;57.39
76519;BME280;67029;51.054;13.798;2023-02-21T07:29:35;100223.44;;;13.78;57.32
76519;BME280;67029;51.054;13.798;2023-02-21T07:32:05;100223.57;;;13.85;57.18
76519;BME280;67029;51.054;13.798;2023-02-21T07:34:35;100232.08;;;13.91;57.12
76519;BME280;67029;51.054;13.798;2023-02-21T07:37:05;100228.38;;;13.93;56.98
76519;BME280;67029;51.054;13.798;2023-02-21T07:39:35;100233.30;;;13.89;57.05
76519;BME280;67029;51.054;13.798;2023-02-21T07:42:06;100238.38;;;13.96;56.99
76519;BME280;67029;51.054;13.798;2023-02-21T07:44:36;100241.52;;;14.02;56.80
76519;BME280;67029;51.054;13.798;2023-02-21T07:47:06;100239.19;;;14.09;56.58
76519;BME280;67029;51.054;13.798;2023-02-21T07:49:37;100231.67;;;14.10;56.48
76519;BME280;67029;51.054;13.798;2023-02-21T07:52:06;100238.91;;;14.05;56.66
76519;BME280;67029;51.054;13.798;2023-02-21T07:54:36;100245.48;;;14.03;56.73
76519;BME280;67029;51.054;13.798;2023-02-21T07:57:06;100235.62;;;14.06;56.70
76519;BME280;67029;51.054;13.798;2023-02-21T07:59:36;100245.34;;;14.05;56.69
76519;BME280;67029;51.054;13.798;2023-02-21T08:02:06;100242.71;;;14.05;56.71
76519;BME280;67029;51.054;13.798;2023-02-21T08:04:36;100240.76;;;14.04;56.79
76519;BME280;67029;51.054;13.798;2023-02-21T08:07:07;100245.47;;;13.89;57.11
76519;BME280;67029;51.054;13.798;2023-02-21T08:09:37;100245.28;;;13.98;56.98
76519;BME280;67029;51.054;13.798;2023-02-21T08:12:08;100242.55;;;14.05;56.81
76519;BME280;67029;51.054;13.798;2023-02-21T08:14:38;100246.92;;;14.12;56.72
76519;BME280;67029;51.054;13.798;2023-02-21T08:17:08;100244.41;;;14.10;56.73
76519;BME280;67029;51.054;13.798;2023-02-21T08:19:38;100242.72;;;14.10;56.70
76519;BME280;67029;51.054;13.798;2023-02-21T08:22:08;100238.02;;;14.12;56.62
76519;BME280;67029;51.054;13.798;2023-02-21T08:24:38;100241.73;;;14.01;56.84
76519;BME280;67029;51.054;13.798;2023-02-21T08:27:08;100245.11;;;13.98;57.06
76519;BME280;67029;51.054;13.798;2023-02-21T08:29:38;100247.12;;;14.05;56.90
76519;BME280;67029;51.054;13.798;2023-02-21T08:32:08;100240.47;;;14.03;57.11
76519;BME280;67029;51.054;13.798;2023-02-21T08:34:39;100247.48;;;13.90;57.36
76519;BME280;67029;51.054;13.798;2023-02-21T08:37:09;100242.95;;;13.88;57.56
76519;BME280;67029;51.054;13.798;2023-02-21T08:39:39;100252.58;;;13.90;57.51
76519;BME280;67029;51.054;13.798;2023-02-21T08:42:10;100253.17;;;13.90;57.50
76519;BME280;67029;51.054;13.798;2023-02-21T08:44:41;100254.30;;;13.86;57.65
76519;BME280;67029;51.054;13.798;2023-02-21T08:47:10;100265.70;;;13.91;57.59
76519;BME280;67029;51.054;13.798;2023-02-21T08:49:43;100256.95;;;13.94;57.44
76519;BME280;67029;51.054;13.798;2023-02-21T08:52:11;100250.69;;;13.97;57.39
76519;BME280;67029;51.054;13.798;2023-02-21T08:54:41;100267.94;;;14.02;57.27
76519;BME280;67029;51.054;13.798;2023-02-21T08:57:12;100260.18;;;13.94;57.43
76519;BME280;67029;51.054;13.798;2023-02-21T08:59:43;100259.82;;;13.98;57.33
76519;BME280;67029;51.054;13.798;2023-02-21T09:02:21;100263.80;;;14.13;57.05
76519;BME280;67029;51.054;13.798;2023-02-21T09:04:44;100268.69;;;14.17;56.91
76519;BME280;67029;51.054;13.798;2023-02-21T09:07:17;100258.33;;;14.26;56.75
76519;BME280;67029;51.054;13.798;2023-02-21T09:09:45;100258.73;;;14.29;56.67
76519;BME280;67029;51.054;13.798;2023-02-21T09:12:15;100256.77;;;14.38;56.41
76519;BME280;67029;51.054;13.798;2023-02-21T09:14:45;100261.61;;;14.35;56.37
76519;BME280;67029;51.054;13.798;2023-02-21T09:17:15;100256.14;;;14.42;56.23
76519;BME280;67029;51.054;13.798;2023-02-21T09:19:45;100247.74;;;14.35;56.20
76519;BME280;67029;51.054;13.798;2023-02-21T09:22:15;100264.84;;;14.30;56.35
76519;BME280;67029;51.054;13.798;2023-02-21T09:24:45;100265.53;;;14.41;56.16
76519;BME280;67029;51.054;13.798;2023-02-21T09:27:15;100260.79;;;14.45;56.09
76519;BME280;67029;51.054;13.798;2023-02-21T09:29:45;100260.55;;;14.50;56.01
76519;BME280;67029;51.054;13.798;2023-02-21T09:32:18;100260.75;;;14.53;55.82
76519;BME280;67029;51.054;13.798;2023-02-21T09:34:46;100262.86;;;14.52;55.85
76519;BME280;67029;51.054;13.798;2023-02-21T09:37:16;100259.66;;;14.52;55.74
76519;BME280;67029;51.054;13.798;2023-02-21T09:39:46;100262.41;;;14.49;55.93
76519;BME280;67029;51.054;13.798;2023-02-21T09:42:17;100266.84;;;14.45;56.06
76519;BME280;67029;51.054;13.798;2023-02-21T09:44:50;100260.88;;;14.48;56.15
76519;BME280;67029;51.054;13.798;2023-02-21T09:47:25;100273.23;;;14.63;56.00
76519;BME280;67029;51.054;13.798;2023-02-21T09:49:47;100269.32;;;14.70;55.59
76519;BME280;67029;51.054;13.798;2023-02-21T09:52:30;100272.14;;;14.65;55.78
76519;BME280;67029;51.054;13.798;2023-02-21T09:54:56;100269.38;;;14.66;55.81
76519;BME280;67029;51.054;13.798;2023-02-21T09:57:19;100272.67;;;14.77;55.61
76519;BME280;67029;51.054;13.798;2023-02-21T09:59:49;100276.93;;;14.83;55.52
76519;BME280;67029;51.054;13.798;2023-02-21T10:02:29;100270.11;;;14.88;55.47
76519;BME280;67029;51.054;13.798;2023-02-21T10:05:08;100274.91;;;14.95;55.38
76519;BME280;67029;51.054;13.798;2023-02-21T10:09:59;100276.19;;;15.09;55.17
76519;BME280;67029;51.054;13.798;2023-02-21T10:12:33;100281.95;;;15.19;55.00
76519;BME280;67029;51.054;13.798;2023-02-21T10:15:16;100281.92;;;15.25;54.61
76519;BME280;67029;51.054;13.798;2023-02-21T10:17:26;100267.54;;;15.22;54.63
76519;BME280;67029;51.054;13.798;2023-02-21T10:19:56;100290.86;;;15.22;54.56
76519;BME280;67029;51.054;13.798;2023-02-21T10:22:25;100288.28;;;15.23;54.46
76519;BME280;67029;51.054;13.798;2023-02-21T10:24:53;100287.62;;;15.18;54.15
76519;BME280;67029;51.054;13.798;2023-02-21T10:27:26;100287.92;;;15.11;54.47
76519;BME280;67029;51.054;13.798;2023-02-21T10:30:00;100292.40;;;15.05;54.63
76519;BME280;67029;51.054;13.798;2023-02-21T10:32:24;100296.23;;;15.10;54.56
76519;BME280;67029;51.054;13.798;2023-02-21T10:34:55;100309.35;;;15.16;54.54
76519;BME280;67029;51.054;13.798;2023-02-21T10:37:35;100286.23;;;15.18;54.22
76519;BME280;67029;51.054;13.798;2023-02-21T10:40:00;100289.48;;;15.13;54.26
76519;BME280;67029;51.054;13.798;2023-02-21T10:42:38;100290.05;;;15.09;54.24
76519;BME280;67029;51.054;13.798;2023-02-21T10:44:57;100293.27;;;15.20;54.22
76519;BME280;67029;51.054;13.798;2023-02-21T10:47:32;100291.89;;;15.27;53.76
76519;BME280;67029;51.054;13.798;2023-02-21T10:50:05;100292.16;;;15.27;53.85
76519;BME280;67029;51.054;13.798;2023-02-21T10:52:29;100299.16;;;15.36;53.49
76519;BME280;67029;51.054;13.798;2023-02-21T10:55:09;100292.36;;;15.39;53.13
76519;BME280;67029;51.054;13.798;2023-02-21T10:57:32;100297.58;;;15.25;53.33
76519;BME280;67029;51.054;13.798;2023-02-21T11:00:01;100288.97;;;15.21;53.68
76519;BME280;67029;51.054;13.798;2023-02-21T11:02:33;100288.28;;;15.23;53.61
76519;BME280;67029;51.054;13.798;2023-02-21T11:05:12;100294.77;;;15.28;53.52
76519;BME280;67029;51.054;13.798;2023-02-21T11:07:31;100289.36;;;15.34;53.55
76519;BME280;67029;51.054;13.798;2023-02-21T11:10:01;100292.63;;;15.31;53.42
76519;BME280;67029;51.054;13.798;2023-02-21T11:12:31;100285.34;;;15.30;53.47
76519;BME280;67029;51.054;13.798;2023-02-21T11:15:03;100277.45;;;15.26;53.37
76519;BME280;67029;51.054;13.798;2023-02-21T11:17:32;100295.64;;;15.25;53.44
76519;BME280;67029;51.054;13.798;2023-02-21T11:20:19;100291.70;;;15.18;53.59
76519;BME280;67029;51.054;13.798;2023-02-21T11:22:43;100289.44;;;15.27;53.29
76519;BME280;67029;51.054;13.798;2023-02-21T11:25:24;100293.10;;;15.22;53.40
76519;BME280;67029;51.054;13.798;2023-02-21T11:27:35;100287.73;;;15.07;53.77
76519;BME280;67029;51.054;13.798;2023-02-21T11:30:15;100289.41;;;15.13;53.79
76519;BME280;67029;51.054;13.798;2023-02-21T11:32:39;100291.12;;;15.15;53.74
76519;BME280;67029;51.054;13.798;2023-02-21T11:35:19;100286.12;;;15.12;53.80
76519;BME280;67029;51.054;13.798;2023-02-21T11:37:46;100287.80;;;15.05;53.88
76519;BME280;67029;51.054;13.798;2023-02-21T11:42:36;100276.16;;;14.93;54.11
76519;BME280;67029;51.054;13.798;2023-02-21T11:45:27;100273.53;;;14.99;54.09
76519;BME280;67029;51.054;13.798;2023-02-21T11:47:47;100281.04;;;14.98;54.04
76519;BME280;67029;51.054;13.798;2023-02-21T11:52:43;100279.40;;;14.93;54.22
76519;BME280;67029;51.054;13.798;2023-02-21T11:55:14;100279.30;;;14.93;54.22
76519;BME280;67029;51.054;13.798;2023-02-21T11:57:53;100287.75;;;14.98;54.25
76519;BME280;67029;51.054;13.798;2023-02-21T12:05:24;100293.30;;;15.05;54.15
76519;BME280;67029;51.054;13.798;2023-02-21T12:07:50;100281.38;;;15.09;53.96
76519;BME280;67029;51.054;13.798;2023-02-21T12:10:39;100283.33;;;15.08;53.94
76519;BME280;67029;51.054;13.798;2023-02-21T12:25:41;100269.05;;;15.03;54.22
76519;BME280;67029;51.054;13.798;2023-02-21T12:37:54;100259.44;;;15.23;54.08
76519;BME280;67029;51.054;13.798;2023-02-21T12:40:27;100259.44;;;15.23;54.08
76519;BME280;67029;51.054;13.798;2023-02-21T12:43:27;100259.04;;;15.25;54.06
76519;BME280;67029;51.054;13.798;2023-02-21T12:50:32;100248.50;;;15.26;54.01
76519;BME280;67029;51.054;13.798;2023-02-21T12:52:57;100256.30;;;15.30;54.03
76519;BME280;67029;51.054;13.798;2023-02-21T12:55:22;100246.38;;;15.30;53.90
76519;BME280;67029;51.054;13.798;2023-02-21T12:57:58;100238.91;;;15.34;53.79
76519;BME280;67029;51.054;13.798;2023-02-21T13:00:24;100237.17;;;15.40;53.73
76519;BME280;67029;51.054;13.798;2023-02-21T13:07:55;100234.77;;;15.50;53.38
76519;BME280;67029;51.054;13.798;2023-02-21T13:10:33;100230.85;;;15.50;53.38
76519;BME280;67029;51.054;13.798;2023-02-21T13:13:01;100230.33;;;15.47;53.35
76519;BME280;67029;51.054;13.798;2023-02-21T13:15:23;100233.20;;;15.46;53.57
76519;BME280;67029;51.054;13.798;2023-02-21T13:18:09;100231.84;;;15.48;53.55
76519;BME280;67029;51.054;13.798;2023-02-21T13:20:24;100231.96;;;15.49;53.40
76519;BME280;67029;51.054;13.798;2023-02-21T13:25:48;100226.98;;;15.63;53.02
76519;BME280;67029;51.054;13.798;2023-02-21T13:28:12;100224.89;;;15.59;53.18
76519;BME280;67029;51.054;13.798;2023-02-21T13:32:56;100212.61;;;15.33;53.42
76519;BME280;67029;51.054;13.798;2023-02-21T13:35:31;100209.58;;;15.37;53.30
76519;BME280;67029;51.054;13.798;2023-02-21T13:37:55;100214.52;;;15.44;53.12
76519;BME280;67029;51.054;13.798;2023-02-21T13:40:32;100220.06;;;15.37;53.27
76519;BME280;67029;51.054;13.798;2023-02-21T13:43:05;100227.14;;;15.39;53.38
76519;BME280;67029;51.054;13.798;2023-02-21T13:45:27;100218.28;;;15.36;53.27
76519;BME280;67029;51.054;13.798;2023-02-21T13:48:10;100218.45;;;15.30;53.43
76519;BME280;67029;51.054;13.798;2023-02-21T13:50:48;100216.02;;;15.26;53.46
76519;BME280;67029;51.054;13.798;2023-02-21T13:53:22;100223.84;;;15.19;53.64
76519;BME280;67029;51.054;13.798;2023-02-21T13:55:29;100220.97;;;15.20;53.71
76519;BME280;67029;51.054;13.798;2023-02-21T14:08:02;100228.80;;;15.12;53.98
76519;BME280;67029;51.054;13.798;2023-02-21T14:10:37;100232.04;;;15.23;53.82
76519;BME280;67029;51.054;13.798;2023-02-21T14:13:06;100226.73;;;15.26;53.72
76519;BME280;67029;51.054;13.798;2023-02-21T14:15:41;100230.86;;;15.28;53.73
76519;BME280;67029;51.054;13.798;2023-02-21T14:18:05;100226.91;;;15.24;53.87